Time;durP1;ratioP1;P1;durP2;ratioP2;P2;SDS_P1;SDS_P2;PMS_P1;PMS_P2;Temp;Humidity;BMP_temperature;BMP_pressure;BME280_temperature;BME280_humidity;BME280_pressure;Samples;Min_cycle;Max_cycle;Signal;HPM_P1;HPM_P2
2021/06/09 00:02:08;;;;;;;1999.90;999.90;;;17.40;99.90;;;;;;5081954;28;20417;-79
2021/06/09 00:04:34;;;;;;;1999.90;999.90;;;17.40;99.90;;;;;;5082517;28;20182;-79
2021/06/09 00:06:59;;;;;;;1999.90;999.90;;;17.30;99.90;;;;;;5082413;28;20457;-79
2021/06/09 00:09:26;;;;;;;1999.90;999.90;;;17.30;99.90;;;;;;5146486;22;20216;-86
2021/06/09 00:11:51;;;;;;;1999.90;999.90;;;17.30;99.90;;;;;;5081452;28;20696;-85
2021/06/09 00:14:18;;;;;;;1999.90;999.90;;;17.40;99.90;;;;;;5081963;28;20402;-84
2021/06/09 00:16:44;;;;;;;1999.90;999.90;;;17.30;99.90;;;;;;5082291;28;20156;-84
2021/06/09 00:19:12;;;;;;;1999.90;999.90;;;17.20;99.90;;;;;;5064062;28;20438;-84
2021/06/09 00:21:37;;;;;;;1999.90;999.90;;;17.40;99.90;;;;;;5081176;28;20410;-84
2021/06/09 00:24:04;;;;;;;1999.90;999.90;;;17.30;99.90;;;;;;5082269;28;20398;-84
2021/06/09 00:26:30;;;;;;;1999.90;999.90;;;17.30;99.90;;;;;;5080925;28;20237;-84
2021/06/09 00:28:56;;;;;;;1999.90;999.90;;;17.30;99.90;;;;;;5082168;28;20422;-84
2021/06/09 00:31:22;;;;;;;1999.90;999.90;;;17.20;99.90;;;;;;5081217;28;20241;-84
2021/06/09 00:33:49;;;;;;;1999.90;999.90;;;17.10;99.90;;;;;;5082139;28;20164;-84
2021/06/09 00:36:17;;;;;;;1999.90;999.90;;;17.20;99.90;;;;;;5082311;28;20523;-84
2021/06/09 00:38:42;;;;;;;1999.90;999.90;;;17.10;99.90;;;;;;5081366;28;20429;-84
2021/06/09 00:41:09;;;;;;;1999.90;999.90;;;17.20;99.90;;;;;;5081989;28;20452;-84
2021/06/09 00:43:35;;;;;;;1999.90;999.90;;;17.00;99.90;;;;;;5082614;28;20206;-84
2021/06/09 00:46:06;;;;;;;1999.90;999.90;;;17.00;99.90;;;;;;5082463;28;20758;-84
2021/06/09 00:48:34;;;;;;;1999.90;999.90;;;17.10;99.90;;;;;;5082262;28;20426;-84
2021/06/09 00:51:03;;;;;;;1999.90;999.90;;;17.10;99.90;;;;;;5081939;28;20401;-84
2021/06/09 00:53:37;;;;;;;1999.90;999.90;;;17.20;99.90;;;;;;5082502;28;20391;-84
2021/06/09 00:56:09;;;;;;;1999.90;999.90;;;17.10;99.90;;;;;;5063886;28;20386;-84
2021/06/09 00:58:41;;;;;;;1999.90;999.90;;;17.00;99.90;;;;;;5062130;28;20476;-84
2021/06/09 01:01:08;;;;;;;1999.90;999.90;;;16.90;99.90;;;;;;5062665;28;20403;-84
2021/06/09 01:03:35;;;;;;;1999.90;999.90;;;16.90;99.90;;;;;;5079305;28;20398;-84
2021/06/09 01:06:04;;;;;;;1999.90;999.90;;;16.80;99.90;;;;;;5080113;28;20402;-84
2021/06/09 01:08:36;;;;;;;1999.90;999.90;;;16.70;99.90;;;;;;5079833;28;20426;-84
2021/06/09 01:11:03;;;;;;;1999.90;999.90;;;16.60;99.90;;;;;;5062731;28;20418;-84
2021/06/09 01:13:31;;;;;;;1999.90;999.90;;;16.60;99.90;;;;;;5079909;28;20403;-85
2021/06/09 01:15:57;;;;;;;1999.90;999.90;;;16.60;99.90;;;;;;5080011;28;20405;-84
2021/06/09 01:18:23;;;;;;;1999.90;999.90;;;16.60;99.90;;;;;;5061922;28;20548;-84
2021/06/09 01:20:50;;;;;;;1999.90;999.90;;;16.60;99.90;;;;;;5062786;28;20912;-84
2021/06/09 01:23:16;;;;;;;1999.90;999.90;;;16.50;99.90;;;;;;5060985;28;20438;-84
2021/06/09 01:25:43;;;;;;;1999.90;999.90;;;16.40;99.90;;;;;;5079847;28;20795;-84
2021/06/09 01:28:09;;;;;;;1999.90;999.90;;;16.50;99.90;;;;;;5079283;28;20480;-84
2021/06/09 01:30:39;;;;;;;1999.90;999.90;;;16.50;99.90;;;;;;5079841;28;20845;-84
2021/06/09 01:33:06;;;;;;;1999.90;999.90;;;16.50;99.90;;;;;;5061086;28;20929;-84
2021/06/09 01:35:32;;;;;;;1999.90;999.90;;;16.40;99.90;;;;;;5079583;28;20421;-84
2021/06/09 01:37:58;;;;;;;1999.90;999.90;;;16.40;99.90;;;;;;5061585;28;20418;-84
2021/06/09 01:40:26;;;;;;;1999.90;999.90;;;16.40;99.90;;;;;;5079927;28;20413;-84
2021/06/09 01:42:53;;;;;;;1999.90;999.90;;;16.40;99.90;;;;;;5061792;28;20648;-84
2021/06/09 01:45:26;;;;;;;1999.90;999.90;;;16.30;99.90;;;;;;5061293;28;20418;-84
2021/06/09 01:47:53;;;;;;;1999.90;999.90;;;16.30;99.90;;;;;;5079578;28;20450;-84
2021/06/09 01:50:20;;;;;;;1999.90;999.90;;;16.20;99.90;;;;;;5079391;28;20402;-84
2021/06/09 01:52:47;;;;;;;1999.90;999.90;;;16.20;99.90;;;;;;5079510;28;20424;-84
2021/06/09 01:55:15;;;;;;;1999.90;999.90;;;16.20;99.90;;;;;;5079138;28;20501;-84
2021/06/09 01:57:40;;;;;;;1999.90;999.90;;;16.10;99.90;;;;;;5061876;28;20820;-84
2021/06/09 02:00:10;;;;;;;1999.90;999.90;;;16.10;99.90;;;;;;5079361;28;20430;-84
2021/06/09 02:02:37;;;;;;;1999.90;999.90;;;16.10;99.90;;;;;;5079654;28;20187;-84
2021/06/09 02:05:05;;;;;;;1999.90;999.90;;;16.10;99.90;;;;;;5079574;28;20466;-84
2021/06/09 02:07:38;;;;;;;1999.90;999.90;;;16.00;99.90;;;;;;5077974;28;20513;-84
2021/06/09 02:10:13;;;;;;;1999.90;999.90;;;16.00;99.90;;;;;;5079651;28;20441;-84
2021/06/09 02:12:41;;;;;;;1999.90;999.90;;;16.00;99.90;;;;;;5079297;28;20386;-84
2021/06/09 02:15:08;;;;;;;1999.90;999.90;;;16.00;99.90;;;;;;5079092;28;20407;-84
2021/06/09 02:17:34;;;;;;;1999.90;999.90;;;16.10;99.90;;;;;;5080032;28;20409;-84
2021/06/09 02:20:01;;;;;;;1999.90;999.90;;;16.00;99.90;;;;;;5079414;28;20425;-84
2021/06/09 02:22:29;;;;;;;1999.90;999.90;;;15.90;99.90;;;;;;5078617;28;20404;-84
2021/06/09 02:24:54;;;;;;;1999.90;999.90;;;15.80;99.90;;;;;;5079002;28;20848;-83
2021/06/09 02:27:20;;;;;;;1999.90;999.90;;;15.80;99.90;;;;;;5079184;28;20547;-84
2021/06/09 02:29:46;;;;;;;1999.90;999.90;;;15.80;99.90;;;;;;5078973;28;20609;-84
2021/06/09 02:32:16;;;;;;;1999.90;999.90;;;15.80;99.90;;;;;;5079077;28;20647;-84
2021/06/09 02:34:42;;;;;;;1999.90;999.90;;;15.80;99.90;;;;;;5079049;28;20142;-84
2021/06/09 02:37:09;;;;;;;1999.90;999.90;;;15.80;99.90;;;;;;5079271;28;20415;-84
2021/06/09 02:39:35;;;;;;;1999.90;999.90;;;15.70;99.90;;;;;;5078812;28;20427;-84
2021/06/09 02:42:01;;;;;;;1999.90;999.90;;;15.70;99.90;;;;;;5078960;28;20404;-84
2021/06/09 02:44:26;;;;;;;1999.90;999.90;;;15.60;99.90;;;;;;5078781;28;20492;-84
2021/06/09 02:46:57;;;;;;;1999.90;999.90;;;15.60;99.90;;;;;;5079039;28;20210;-84
2021/06/09 02:49:26;;;;;;;1999.90;999.90;;;15.50;99.90;;;;;;5078656;28;20228;-84
2021/06/09 02:52:01;;;;;;;1999.90;999.90;;;15.60;99.90;;;;;;5079092;28;20430;-84
2021/06/09 02:54:51;;;;;;;1999.90;999.90;;;15.60;99.90;;;;;;5078347;28;20484;-84
2021/06/09 02:57:57;;;;;;;1999.90;999.90;;;15.60;99.90;;;;;;5079026;28;20381;-84
2021/06/09 03:00:32;;;;;;;1999.90;999.90;;;15.50;99.90;;;;;;5079058;28;20404;-84
2021/06/09 03:03:21;;;;;;;1999.90;999.90;;;15.50;99.90;;;;;;5078516;28;20388;-84
2021/06/09 03:06:01;;;;;;;1999.90;999.90;;;15.50;99.90;;;;;;5061365;28;20813;-84
2021/06/09 03:08:45;;;;;;;1999.90;999.90;;;15.40;99.90;;;;;;5081205;28;20448;-84
2021/06/09 03:11:31;;;;;;;1999.90;999.90;;;15.40;99.90;;;;;;5080139;28;20423;-84
2021/06/09 03:14:17;;;;;;;1999.90;999.90;;;15.40;99.90;;;;;;5080904;28;20384;-84
2021/06/09 03:16:55;;;;;;;1999.90;999.90;;;15.40;99.90;;;;;;5061990;28;20502;-84
2021/06/09 03:19:32;;;;;;;1999.90;999.90;;;15.50;99.90;;;;;;5083938;28;20416;-84
2021/06/09 03:22:16;;;;;;;1999.90;999.90;;;15.60;99.90;;;;;;5084338;28;20748;-84
2021/06/09 03:24:47;;;;;;;1999.90;999.90;;;15.70;99.90;;;;;;5084369;28;20388;-84
2021/06/09 03:27:21;;;;;;;1999.90;999.90;;;15.60;99.90;;;;;;5084011;28;20497;-84
2021/06/09 03:29:55;;;;;;;1999.90;999.90;;;15.60;99.90;;;;;;5064440;28;20512;-84
2021/06/09 03:33:08;;;;;;;1999.90;999.90;;;15.60;99.90;;;;;;5082563;28;20392;-84
2021/06/09 03:35:58;;;;;;;1999.90;999.90;;;15.50;99.90;;;;;;5082578;28;20441;-84
2021/06/09 03:38:33;;;;;;;1999.90;999.90;;;15.50;99.90;;;;;;5080788;28;20424;-84
2021/06/09 03:41:05;;;;;;;1999.90;999.90;;;15.40;99.90;;;;;;5064283;28;20428;-84
2021/06/09 03:43:34;;;;;;;1999.90;999.90;;;15.40;99.90;;;;;;5064003;28;20462;-84
2021/06/09 03:46:01;;;;;;;1999.90;999.90;;;15.40;99.90;;;;;;5081837;28;20895;-84
2021/06/09 03:48:30;;;;;;;1999.90;999.90;;;15.40;99.90;;;;;;5081758;28;20457;-84
2021/06/09 03:50:59;;;;;;;1999.90;999.90;;;15.40;99.90;;;;;;5082013;28;20433;-84
2021/06/09 03:53:26;;;;;;;1999.90;999.90;;;15.40;99.90;;;;;;5082877;28;20404;-84
2021/06/09 03:55:57;;;;;;;1999.90;999.90;;;15.40;99.90;;;;;;5064335;28;20412;-84
2021/06/09 03:58:24;;;;;;;1999.90;999.90;;;15.40;99.90;;;;;;5082716;28;20816;-84
2021/06/09 04:00:52;;;;;;;1999.90;999.90;;;15.50;99.90;;;;;;5083277;28;20411;-84
2021/06/09 04:03:20;;;;;;;1999.90;999.90;;;15.50;99.90;;;;;;5065357;28;20412;-84
2021/06/09 04:05:47;;;;;;;1999.90;999.90;;;15.50;99.90;;;;;;5064828;28;20416;-84
2021/06/09 04:08:15;;;;;;;1999.90;999.90;;;15.50;99.90;;;;;;5065369;28;20455;-84
2021/06/09 04:10:43;;;;;;;1999.90;999.90;;;15.50;99.90;;;;;;5083746;28;20424;-84
2021/06/09 04:13:09;;;;;;;1999.90;999.90;;;15.50;99.90;;;;;;5083455;28;20495;-85
2021/06/09 04:15:37;;;;;;;1999.90;999.90;;;15.50;99.90;;;;;;5083813;28;20412;-84
2021/06/09 04:18:04;;;;;;;1999.90;999.90;;;15.40;99.90;;;;;;5083395;28;20405;-85
2021/06/09 04:20:31;;;;;;;1999.90;999.90;;;15.50;99.90;;;;;;5083526;28;20452;-84
2021/06/09 04:22:57;;;;;;;1999.90;999.90;;;15.50;99.90;;;;;;5082507;28;20400;-84
2021/06/09 04:25:24;;;;;;;1999.90;999.90;;;15.50;99.90;;;;;;5065192;28;20455;-84
2021/06/09 04:27:51;;;;;;;1999.90;999.90;;;15.60;99.90;;;;;;5064834;28;20456;-84
2021/06/09 04:30:19;;;;;;;1999.90;999.90;;;15.60;99.90;;;;;;5081563;28;20399;-84
2021/06/09 04:32:59;;;;;;;1999.90;999.90;;;15.70;99.90;;;;;;5082197;28;20400;-84
2021/06/09 04:35:27;;;;;;;1999.90;999.90;;;15.80;99.90;;;;;;5064461;28;20408;-84
2021/06/09 04:37:54;;;;;;;1999.90;999.90;;;15.90;99.90;;;;;;5081995;28;20414;-84
2021/06/09 04:40:26;;;;;;;1999.90;999.90;;;16.10;99.90;;;;;;5081294;28;20402;-84
2021/06/09 04:42:54;;;;;;;1999.90;999.90;;;16.30;99.90;;;;;;5081759;28;20424;-84
2021/06/09 04:45:22;;;;;;;1999.90;999.90;;;16.40;99.90;;;;;;5081389;28;20396;-84
2021/06/09 04:47:47;;;;;;;1999.90;999.90;;;16.50;99.90;;;;;;5062176;28;20497;-84
2021/06/09 04:50:17;;;;;;;1999.90;999.90;;;16.70;99.90;;;;;;5080884;28;20421;-84
2021/06/09 04:52:42;;;;;;;1999.90;999.90;;;16.90;99.90;;;;;;5081707;28;20163;-84
2021/06/09 04:55:09;;;;;;;1999.90;999.90;;;17.00;99.90;;;;;;5082219;28;20407;-84
2021/06/09 04:57:36;;;;;;;1999.90;999.90;;;17.30;99.90;;;;;;5082365;28;20976;-84
2021/06/09 05:00:07;;;;;;;1999.90;999.90;;;17.50;99.90;;;;;;5064537;28;20972;-84
2021/06/09 05:02:33;;;;;;;1999.90;999.90;;;17.70;99.90;;;;;;5082374;28;20758;-84
2021/06/09 05:04:59;;;;;;;1999.90;999.90;;;17.90;99.90;;;;;;5080766;28;20402;-84
2021/06/09 05:07:25;;;;;;;1999.90;999.90;;;18.10;99.90;;;;;;5062403;28;20264;-84
2021/06/09 05:09:51;;;;;;;1999.90;999.90;;;18.20;99.90;;;;;;5079699;28;20487;-84
2021/06/09 05:12:24;;;;;;;1999.90;999.90;;;18.40;99.90;;;;;;5079861;28;20398;-84
2021/06/09 05:15:06;;;;;;;1999.90;999.90;;;18.50;99.90;;;;;;5079958;28;20379;-84
2021/06/09 05:17:41;;;;;;;1999.90;999.90;;;18.50;99.90;;;;;;5062801;28;20460;-84
2021/06/09 05:20:09;;;;;;;1999.90;999.90;;;18.50;99.90;;;;;;5079310;28;20429;-84
2021/06/09 05:22:44;;;;;;;1999.90;999.90;;;18.60;99.90;;;;;;5078882;28;20413;-84
2021/06/09 05:25:11;;;;;;;1999.90;999.90;;;18.60;99.90;;;;;;5079379;28;20393;-84
2021/06/09 05:27:38;;;;;;;1999.90;999.90;;;18.50;99.90;;;;;;5079528;28;20473;-84
2021/06/09 05:30:11;;;;;;;1999.90;999.90;;;18.60;99.90;;;;;;5079737;28;20519;-84
2021/06/09 05:32:38;;;;;;;1999.90;999.90;;;18.60;99.90;;;;;;5061505;28;20417;-84
2021/06/09 05:35:05;;;;;;;1999.90;999.90;;;18.60;99.90;;;;;;5078940;28;20410;-84
2021/06/09 05:37:33;;;;;;;1999.90;999.90;;;18.60;99.90;;;;;;5079300;28;20413;-84
2021/06/09 05:40:00;;;;;;;1999.90;999.90;;;18.50;99.90;;;;;;5078139;28;20914;-84
2021/06/09 05:42:29;;;;;;;1999.90;999.90;;;18.50;99.90;;;;;;5060589;28;20422;-84
2021/06/09 05:44:57;;;;;;;1999.90;999.90;;;18.50;99.90;;;;;;5079312;28;20471;-84
2021/06/09 05:47:23;;;;;;;1999.90;999.90;;;18.60;99.90;;;;;;5078524;28;20522;-84
2021/06/09 05:50:08;;;;;;;1999.90;999.90;;;18.40;99.90;;;;;;5078594;28;20422;-84
2021/06/09 05:52:33;;;;;;;1999.90;999.90;;;18.40;99.90;;;;;;5079572;28;20160;-84
2021/06/09 05:55:02;;;;;;;1999.90;999.90;;;18.50;99.90;;;;;;5079984;28;20763;-84
2021/06/09 05:57:37;;;;;;;1999.90;999.90;;;18.50;99.90;;;;;;5078841;28;20406;-84
2021/06/09 06:00:04;;;;;;;1999.90;999.90;;;18.50;99.90;;;;;;5061483;28;20437;-84
2021/06/09 06:02:30;;;;;;;1999.90;999.90;;;18.50;99.90;;;;;;5061351;28;20417;-84
2021/06/09 06:04:59;;;;;;;1999.90;999.90;;;18.50;99.90;;;;;;5062241;28;20422;-84
2021/06/09 06:07:29;;;;;;;1999.90;999.90;;;18.60;99.90;;;;;;5060980;28;20453;-84
2021/06/09 06:09:59;;;;;;;1999.90;999.90;;;18.50;99.90;;;;;;5153191;22;20480;-83
2021/06/09 06:12:29;;;;;;;1999.90;999.90;;;18.70;99.90;;;;;;5096624;28;20394;-82
2021/06/09 06:14:55;;;;;;;1999.90;999.90;;;18.70;99.90;;;;;;5096834;28;20374;-82
2021/06/09 06:17:21;;;;;;;1999.90;999.90;;;18.70;99.90;;;;;;5096837;28;20904;-82
2021/06/09 06:19:51;;;;;;;1999.90;999.90;;;18.70;99.90;;;;;;5096622;28;20516;-83
2021/06/09 06:22:18;;;;;;;1999.90;999.90;;;18.80;99.90;;;;;;5097690;28;20397;-83
2021/06/09 06:24:49;;;;;;;1999.90;999.90;;;18.90;99.90;;;;;;5097994;28;20405;-83
2021/06/09 06:27:16;;;;;;;1999.90;999.90;;;18.90;99.90;;;;;;5097931;28;20782;-83
2021/06/09 06:29:46;;;;;;;1999.90;999.90;;;19.00;99.90;;;;;;5097795;28;20421;-83
2021/06/09 06:32:14;;;;;;;1999.90;999.90;;;19.10;99.90;;;;;;5098483;28;20401;-83
2021/06/09 06:34:50;;;;;;;1999.90;999.90;;;19.10;99.90;;;;;;5097475;28;20764;-83
2021/06/09 06:37:17;;;;;;;1999.90;999.90;;;19.20;99.90;;;;;;5096768;28;20412;-83
2021/06/09 06:39:44;;;;;;;1999.90;999.90;;;19.20;99.90;;;;;;5097849;28;20517;-83
2021/06/09 06:42:10;;;;;;;1999.90;999.90;;;19.30;99.90;;;;;;5097914;28;20397;-82
2021/06/09 06:44:41;;;;;;;1999.90;999.90;;;19.40;99.90;;;;;;5095318;28;20409;-82
2021/06/09 06:47:07;;;;;;;1999.90;999.90;;;19.40;99.90;;;;;;5096320;28;20517;-82
2021/06/09 06:49:37;;;;;;;1999.90;999.90;;;19.50;99.90;;;;;;5096361;28;20421;-81
2021/06/09 06:52:04;;;;;;;1999.90;999.90;;;19.50;99.90;;;;;;5096317;28;20439;-81
2021/06/09 06:54:30;;;;;;;1999.90;999.90;;;19.60;99.90;;;;;;5099398;28;20417;-83
2021/06/09 06:56:57;;;;;;;1999.90;999.90;;;19.70;99.90;;;;;;5099403;28;20441;-82
2021/06/09 06:59:25;;;;;;;1999.90;999.90;;;19.70;99.90;;;;;;5099470;28;20467;-82
2021/06/09 07:01:52;;;;;;;1999.90;999.90;;;19.80;99.90;;;;;;5100506;28;20432;-83
2021/06/09 07:04:19;;;;;;;1999.90;999.90;;;19.80;99.90;;;;;;5082661;28;20497;-83
2021/06/09 07:06:47;;;;;;;1999.90;999.90;;;19.90;99.90;;;;;;5100555;28;20494;-83
2021/06/09 07:09:14;;;;;;;1999.90;999.90;;;19.80;99.90;;;;;;5100673;28;20429;-82
2021/06/09 07:11:42;;;;;;;1999.90;999.90;;;19.90;99.90;;;;;;5101763;28;20485;-82
2021/06/09 07:14:09;;;;;;;1999.90;999.90;;;20.00;99.90;;;;;;5101399;28;20771;-83
2021/06/09 07:16:36;;;;;;;1999.90;999.90;;;20.10;99.90;;;;;;5100237;28;20861;-83
2021/06/09 07:19:03;;;;;;;1999.90;999.90;;;20.20;99.90;;;;;;5099481;28;20425;-83
2021/06/09 07:21:31;;;;;;;1999.90;999.90;;;20.30;99.90;;;;;;5100131;28;20390;-82
2021/06/09 07:23:59;;;;;;;1999.90;999.90;;;20.30;99.90;;;;;;5100688;28;20486;-83
2021/06/09 07:26:28;;;;;;;1999.90;999.90;;;20.40;99.90;;;;;;5100161;28;20405;-82
2021/06/09 07:28:55;;;;;;;1999.90;999.90;;;20.40;99.90;;;;;;5100083;28;20425;-82
2021/06/09 07:31:47;;;;;;;1999.90;999.90;;;20.40;99.90;;;;;;5099918;28;20459;-82
2021/06/09 07:34:14;;;;;;;1999.90;999.90;;;20.50;99.90;;;;;;5095971;28;20414;-81
2021/06/09 07:36:42;;;;;;;1999.90;999.90;;;20.50;99.90;;;;;;5099533;28;20457;-82
2021/06/09 07:45:08;;;;;;;1999.90;999.90;;;20.80;99.90;;;;;;5025800;28;20433;-81
2021/06/09 07:47:47;;;;;;;1999.90;999.90;;;20.80;99.90;;;;;;5021519;28;20487;-82
2021/06/09 07:51:06;;;;;;;1999.90;999.90;;;20.80;99.90;;;;;;5041384;28;20432;-82
2021/06/09 07:53:57;;;;;;;1999.90;999.90;;;20.90;99.90;;;;;;5038663;28;20438;-82
2021/06/09 07:56:29;;;;;;;1999.90;999.90;;;21.00;99.90;;;;;;5038742;28;20407;-81
2021/06/09 07:59:01;;;;;;;1999.90;999.90;;;21.00;99.90;;;;;;5039907;28;20764;-83
2021/06/09 08:01:34;;;;;;;1999.90;999.90;;;21.10;99.90;;;;;;5039234;28;20405;-82
2021/06/09 08:04:04;;;;;;;1999.90;999.90;;;21.10;99.90;;;;;;5040208;28;20397;-81
2021/06/09 08:06:30;;;;;;;1999.90;999.90;;;21.20;99.90;;;;;;5039138;28;20805;-81
2021/06/09 08:08:58;;;;;;;1999.90;999.90;;;21.20;99.90;;;;;;5057808;28;20422;-82
2021/06/09 08:11:29;;;;;;;1999.90;999.90;;;21.20;99.90;;;;;;5040580;28;20429;-81
2021/06/09 08:13:56;;;;;;;1999.90;999.90;;;21.20;99.90;;;;;;5039528;28;20416;-81
2021/06/09 08:16:35;;;;;;;1999.90;999.90;;;21.30;99.90;;;;;;5039828;28;20399;-81
2021/06/09 08:19:10;;;;;;;1999.90;999.90;;;21.40;99.90;;;;;;5039841;28;20452;-81
2021/06/09 08:21:36;;;;;;;1999.90;999.90;;;21.50;99.90;;;;;;5039577;28;20805;-81
2021/06/09 08:24:23;;;;;;;1999.90;999.90;;;21.50;99.90;;;;;;5039806;28;20410;-82
2021/06/09 08:26:52;;;;;;;1999.90;999.90;;;21.60;99.90;;;;;;5057008;28;20502;-81
2021/06/09 08:29:18;;;;;;;1999.90;999.90;;;21.70;99.90;;;;;;5039486;28;20419;-81
2021/06/09 08:31:44;;;;;;;1999.90;999.90;;;21.70;99.90;;;;;;5040453;28;20461;-82
2021/06/09 08:34:12;;;;;;;1999.90;999.90;;;21.70;99.90;;;;;;5039271;28;20905;-81
2021/06/09 08:36:44;;;;;;;1999.90;999.90;;;21.90;99.90;;;;;;5039939;28;20583;-81
2021/06/09 08:39:15;;;;;;;1999.90;999.90;;;21.90;99.90;;;;;;5039524;28;20445;-81
2021/06/09 08:41:43;;;;;;;1999.90;999.90;;;22.10;99.90;;;;;;5040218;28;20809;-82
2021/06/09 08:44:18;;;;;;;1999.90;999.90;;;22.10;99.90;;;;;;5057259;28;20392;-81
2021/06/09 08:46:48;;;;;;;1999.90;999.90;;;22.20;99.90;;;;;;5039265;28;20447;-82
2021/06/09 08:49:17;;;;;;;1999.90;999.90;;;22.30;99.90;;;;;;5039593;28;20438;-81
2021/06/09 08:51:46;;;;;;;1999.90;999.90;;;22.40;99.90;;;;;;5038479;28;20435;-81
2021/06/09 08:54:15;;;;;;;1999.90;999.90;;;22.50;99.90;;;;;;5037808;28;20407;-81
2021/06/09 08:56:50;;;;;;;1999.90;999.90;;;22.60;99.90;;;;;;5038384;28;20923;-81
2021/06/09 08:59:16;;;;;;;1999.90;999.90;;;22.70;99.90;;;;;;5039146;28;20959;-81
2021/06/09 09:01:57;;;;;;;1999.90;999.90;;;22.70;99.90;;;;;;5056281;28;20902;-82
2021/06/09 09:04:23;;;;;;;1999.90;999.90;;;22.70;99.90;;;;;;5057108;28;20390;-82
2021/06/09 09:06:55;;;;;;;1999.90;999.90;;;22.90;99.90;;;;;;5056735;28;20506;-81
2021/06/09 09:09:29;;;;;;;1999.90;999.90;;;23.00;99.90;;;;;;5056887;28;20981;-81
2021/06/09 09:11:56;;;;;;;1999.90;999.90;;;23.10;99.90;;;;;;5057184;28;20411;-80
2021/06/09 09:14:23;;;;;;;1999.90;999.90;;;23.30;99.90;;;;;;5037044;28;20414;-81
2021/06/09 09:17:12;;;;;;;1999.90;999.90;;;23.20;99.90;;;;;;5055285;28;20486;-81
2021/06/09 09:19:46;;;;;;;1999.90;999.90;;;23.30;99.90;;;;;;5039341;28;21008;-82
2021/06/09 09:22:58;;;;;;;1999.90;999.90;;;23.50;99.90;;;;;;5038388;28;20779;-82
2021/06/09 09:25:31;;;;;;;1999.90;999.90;;;23.60;99.90;;;;;;5035219;28;20411;-83
2021/06/09 09:28:04;;;;;;;1999.90;999.90;;;23.80;99.90;;;;;;5038210;28;20443;-83
2021/06/09 09:30:45;;;;;;;1999.90;999.90;;;23.90;99.90;;;;;;5056967;28;20382;-82
2021/06/09 09:33:31;;;;;;;1999.90;999.90;;;24.10;99.90;;;;;;5056579;28;20466;-81
2021/06/09 09:35:56;;;;;;;1999.90;999.90;;;24.20;99.90;;;;;;5038563;28;20478;-81
2021/06/09 09:38:31;;;;;;;1999.90;999.90;;;24.40;99.90;;;;;;5056476;28;20427;-82
2021/06/09 09:41:27;;;;;;;1999.90;999.90;;;24.50;99.90;;;;;;5057490;28;20148;-81
2021/06/09 09:44:05;;;;;;;1999.90;999.90;;;24.70;99.90;;;;;;5055946;28;20526;-82
2021/06/09 09:47:00;;;;;;;1999.90;999.90;;;25.00;99.90;;;;;;5038613;28;20421;-82
2021/06/09 09:49:53;;;;;;;;;;;;;;;;;;;;;
2021/06/09 09:52:24;;;;;;;1999.90;999.90;;;25.50;95.80;;;;;;5056315;28;20400;-82
2021/06/09 09:54:59;;;;;;;1999.90;999.90;;;25.80;97.60;;;;;;5039029;28;20403;-82
2021/06/09 09:57:45;;;;;;;;;;;;;;;;;;;;;
2021/06/09 10:00:36;;;;;;;1999.90;999.90;;;25.80;92.20;;;;;;5055898;28;20860;-81
2021/06/09 10:03:38;;;;;;;1999.90;999.90;;;26.00;91.60;;;;;;5035832;28;20775;-82
2021/06/09 10:06:38;;;;;;;1999.90;999.90;;;26.30;90.90;;;;;;5038588;28;20766;-81
2021/06/09 10:14:04;;;;;;;1999.90;999.90;;;26.50;64.10;;;;;;4995531;28;20519;-81
2021/06/09 10:17:41;;;;;;;1999.90;999.90;;;26.70;55.00;;;;;;5070441;28;20408;-82
2021/06/09 10:20:45;;;;;;;;;;;;;;;;;;;;;
2021/06/09 10:24:02;;;;;;;1999.90;999.90;;;27.20;48.90;;;;;;5096576;28;20803;-81
2021/06/09 10:26:30;;;;;;;1999.90;999.90;;;27.40;39.10;;;;;;5064434;28;20948;-82
2021/06/09 10:29:38;;;;;;;1999.90;999.90;;;27.20;36.90;;;;;;5080835;28;20436;-82
2021/06/09 10:36:05;;;;;;;;;;;;;;;;;;;;;
2021/06/09 10:41:57;;;;;;;;;;;;;;;;;;;;;
2021/06/09 10:44:44;;;;;;;1999.90;999.90;;;27.00;41.20;;;;;;5013934;28;20425;-82
2021/06/09 10:47:32;;;;;;;1999.90;999.90;;;27.00;32.00;;;;;;5059903;28;20976;-82
2021/06/09 10:50:18;;;;;;;1999.90;999.90;;;27.10;44.50;;;;;;5076989;28;20426;-82
2021/06/09 10:53:59;;;;;;;1999.90;999.90;;;27.40;34.10;;;;;;5079616;28;20873;-82
2021/06/09 10:56:23;;;;;;;1999.90;999.90;;;27.70;27.80;;;;;;5069025;28;20430;-82
2021/06/09 10:59:01;;;;;;;1999.90;999.90;;;27.80;17.60;;;;;;5092499;22;20534;-82
2021/06/09 11:02:06;;;;;;;1999.90;999.90;;;27.90;23.40;;;;;;5081766;28;20429;-81
2021/06/09 11:05:09;;;;;;;1999.90;999.90;;;27.60;19.50;;;;;;5098566;28;20417;-81
2021/06/09 11:07:59;;;;;;;1999.90;999.90;;;27.50;22.70;;;;;;5010980;28;20458;-81
2021/06/09 11:10:55;;;;;;;1999.90;999.90;;;27.60;19.80;;;;;;5060426;28;20407;-82
2021/06/09 11:14:31;;;;;;;;;;;;;;;;;;;;;
2021/06/09 11:17:05;;;;;;;1999.90;999.90;;;28.10;18.20;;;;;;5079589;28;20995;-82
2021/06/09 11:20:15;;;;;;;1999.90;999.90;;;28.50;12.70;;;;;;5059795;28;20592;-81
2021/06/09 11:23:37;;;;;;;1999.90;999.90;;;28.70;7.50;;;;;;4982099;28;20402;-83
2021/06/09 11:27:17;;;;;;;1999.90;999.90;;;28.50;6.10;;;;;;4891785;29;20412;-81
2021/06/09 11:29:45;;;;;;;1999.90;999.90;;;28.40;4.30;;;;;;5030192;22;20853;-81
2021/06/09 11:32:44;;;;;;;1999.90;999.90;;;28.60;1.70;;;;;;5081234;28;20444;-82
2021/06/09 11:35:13;;;;;;;1999.90;999.90;;;28.90;1.50;;;;;;5099034;28;20469;-82
2021/06/09 11:37:38;;;;;;;1999.90;999.90;;;29.20;4.40;;;;;;5098840;28;20390;-82
2021/06/09 11:40:19;;;;;;;1999.90;999.90;;;29.50;4.00;;;;;;5098896;28;20439;-83
2021/06/09 11:43:43;;;;;;;1999.90;999.90;;;29.30;1.00;;;;;;5099606;28;20213;-82
2021/06/09 11:46:17;;;;;;;1999.90;999.90;;;28.90;1.00;;;;;;5097226;28;20429;-81
2021/06/09 11:52:37;;;;;;;1999.90;999.90;;;28.90;1.00;;;;;;5097928;28;20420;-82
2021/06/09 11:55:38;;;;;;;1999.90;999.90;;;29.20;1.00;;;;;;5080433;28;20469;-82
2021/06/09 11:58:17;;;;;;;1999.90;999.90;;;29.50;1.00;;;;;;5020665;28;20443;-82
2021/06/09 12:01:13;;;;;;;1999.90;999.90;;;29.60;1.00;;;;;;5098749;28;20393;-82
2021/06/09 12:03:42;;;;;;;1999.90;999.90;;;29.60;1.00;;;;;;5088874;28;20421;-82
2021/06/09 12:06:23;;;;;;;1999.90;999.90;;;29.60;1.00;;;;;;5098971;28;20393;-81
2021/06/09 12:09:11;;;;;;;1999.90;999.90;;;29.60;1.00;;;;;;5098647;28;20449;-81
2021/06/09 12:11:46;;;;;;;1999.90;999.90;;;29.70;1.00;;;;;;5174243;22;20486;-84
2021/06/09 12:14:31;;;;;;;1999.90;999.90;;;29.60;1.00;;;;;;5100829;28;20385;-85
2021/06/09 12:17:23;;;;;;;1999.90;999.90;;;29.70;1.00;;;;;;5101130;28;20390;-85
2021/06/09 12:19:55;;;;;;;1999.90;999.90;;;29.90;1.00;;;;;;5083540;28;20429;-85
2021/06/09 12:22:23;;;;;;;1999.90;999.90;;;30.00;1.00;;;;;;5102914;28;20409;-85
2021/06/09 12:25:12;;;;;;;1999.90;999.90;;;30.00;1.00;;;;;;5083657;28;20397;-85
2021/06/09 12:27:43;;;;;;;1999.90;999.90;;;30.00;1.00;;;;;;5100620;28;20438;-85
2021/06/09 12:30:23;;;;;;;1999.90;999.90;;;30.10;1.00;;;;;;5101756;28;21005;-85
2021/06/09 12:32:51;;;;;;;1999.90;999.90;;;30.00;1.00;;;;;;5104993;28;20374;-85
2021/06/09 12:35:18;;;;;;;1999.90;999.90;;;29.70;1.00;;;;;;5103088;28;20433;-85
2021/06/09 12:37:46;;;;;;;1999.90;999.90;;;29.80;1.00;;;;;;5102531;28;20738;-84
2021/06/09 12:40:19;;;;;;;1999.90;999.90;;;30.00;1.00;;;;;;5103383;28;20417;-85
2021/06/09 12:42:56;;;;;;;1999.90;999.90;;;30.20;1.00;;;;;;5084970;28;20488;-85
2021/06/09 12:45:27;;;;;;;1999.90;999.90;;;30.30;1.00;;;;;;5100590;28;20465;-85
2021/06/09 12:47:54;;;;;;;1999.90;999.90;;;30.30;1.00;;;;;;5101565;28;20442;-85
2021/06/09 12:50:41;;;;;;;1999.90;999.90;;;30.40;1.00;;;;;;5100562;28;20405;-85
2021/06/09 12:53:08;;;;;;;1999.90;999.90;;;30.30;1.00;;;;;;5101007;28;20814;-85
2021/06/09 12:55:37;;;;;;;1999.90;999.90;;;30.30;1.00;;;;;;5100309;28;20424;-85
2021/06/09 12:58:07;;;;;;;1999.90;999.90;;;30.50;1.00;;;;;;5100637;28;20417;-85
2021/06/09 13:00:36;;;;;;;1999.90;999.90;;;30.40;1.00;;;;;;5083110;28;20424;-85
2021/06/09 13:03:19;;;;;;;1999.90;999.90;;;30.10;1.00;;;;;;5080311;28;20511;-85
2021/06/09 13:05:49;;;;;;;1999.90;999.90;;;30.10;1.00;;;;;;5102277;28;20382;-85